sensor_id;sensor_type;location;lat;lon;timestamp;P1;durP1;ratioP1;P2;durP2;ratioP2
41653;SDS011;68687;52.030;7.110;2023-04-03T00:00:12;12.60;;;6.60;;
41653;SDS011;68687;52.030;7.110;2023-04-03T00:02:38;7.50;;;5.35;;
41653;SDS011;68687;52.030;7.110;2023-04-03T00:05:03;5.95;;;5.35;;
41653;SDS011;68687;52.030;7.110;2023-04-03T00:07:29;6.05;;;4.95;;
41653;SDS011;68687;52.030;7.110;2023-04-03T00:09:55;6.80;;;4.82;;
41653;SDS011;68687;52.030;7.110;2023-04-03T00:12:20;10.85;;;5.07;;
41653;SDS011;68687;52.030;7.110;2023-04-03T00:14:45;7.05;;;5.10;;
41653;SDS011;68687;52.030;7.110;2023-04-03T00:17:11;10.65;;;5.78;;
41653;SDS011;68687;52.030;7.110;2023-04-03T00:19:36;9.90;;;5.00;;
41653;SDS011;68687;52.030;7.110;2023-04-03T00:22:01;14.73;;;6.28;;
41653;SDS011;68687;52.030;7.110;2023-04-03T00:24:26;7.82;;;5.15;;
41653;SDS011;68687;52.030;7.110;2023-04-03T00:26:52;7.32;;;4.82;;
41653;SDS011;68687;52.030;7.110;2023-04-03T00:29:17;10.60;;;5.40;;
41653;SDS011;68687;52.030;7.110;2023-04-03T00:31:42;4.75;;;4.00;;
41653;SDS011;68687;52.030;7.110;2023-04-03T00:34:07;7.80;;;4.80;;
41653;SDS011;68687;52.030;7.110;2023-04-03T00:36:33;8.48;;;5.07;;
41653;SDS011;68687;52.030;7.110;2023-04-03T00:38:58;6.97;;;4.70;;
41653;SDS011;68687;52.030;7.110;2023-04-03T00:41:23;8.88;;;4.18;;
41653;SDS011;68687;52.030;7.110;2023-04-03T00:43:50;5.60;;;4.60;;
41653;SDS011;68687;52.030;7.110;2023-04-03T00:46:15;9.05;;;4.18;;
41653;SDS011;68687;52.030;7.110;2023-04-03T00:48:44;4.78;;;3.72;;
41653;SDS011;68687;52.030;7.110;2023-04-03T00:51:12;6.85;;;4.10;;
41653;SDS011;68687;52.030;7.110;2023-04-03T00:53:41;6.82;;;4.32;;
41653;SDS011;68687;52.030;7.110;2023-04-03T00:56:19;7.82;;;4.18;;
41653;SDS011;68687;52.030;7.110;2023-04-03T00:58:49;7.72;;;3.92;;
41653;SDS011;68687;52.030;7.110;2023-04-03T01:01:21;6.75;;;4.60;;
41653;SDS011;68687;52.030;7.110;2023-04-03T01:03:49;7.93;;;4.45;;
41653;SDS011;68687;52.030;7.110;2023-04-03T01:06:16;5.22;;;4.20;;
41653;SDS011;68687;52.030;7.110;2023-04-03T01:08:44;7.68;;;4.38;;
41653;SDS011;68687;52.030;7.110;2023-04-03T01:11:11;9.15;;;4.22;;
41653;SDS011;68687;52.030;7.110;2023-04-03T01:13:37;6.63;;;4.05;;
41653;SDS011;68687;52.030;7.110;2023-04-03T01:16:03;7.95;;;4.10;;
41653;SDS011;68687;52.030;7.110;2023-04-03T01:18:30;11.07;;;4.15;;
41653;SDS011;68687;52.030;7.110;2023-04-03T01:21:16;4.88;;;4.47;;
41653;SDS011;68687;52.030;7.110;2023-04-03T01:23:50;12.65;;;5.30;;
41653;SDS011;68687;52.030;7.110;2023-04-03T01:26:23;6.75;;;5.00;;
41653;SDS011;68687;52.030;7.110;2023-04-03T01:28:50;6.82;;;4.75;;
41653;SDS011;68687;52.030;7.110;2023-04-03T01:31:23;6.47;;;4.65;;
41653;SDS011;68687;52.030;7.110;2023-04-03T01:33:52;6.93;;;4.23;;
41653;SDS011;68687;52.030;7.110;2023-04-03T01:36:23;5.70;;;4.95;;
41653;SDS011;68687;52.030;7.110;2023-04-03T01:38:51;8.80;;;4.88;;
41653;SDS011;68687;52.030;7.110;2023-04-03T01:41:17;15.32;;;4.72;;
41653;SDS011;68687;52.030;7.110;2023-04-03T01:43:43;6.07;;;4.80;;
41653;SDS011;68687;52.030;7.110;2023-04-03T01:46:08;8.10;;;4.65;;
41653;SDS011;68687;52.030;7.110;2023-04-03T01:48:33;9.40;;;4.97;;
41653;SDS011;68687;52.030;7.110;2023-04-03T01:50:59;6.82;;;4.93;;
41653;SDS011;68687;52.030;7.110;2023-04-03T01:53:25;5.05;;;4.03;;
41653;SDS011;68687;52.030;7.110;2023-04-03T01:55:50;8.80;;;4.25;;
41653;SDS011;68687;52.030;7.110;2023-04-03T01:58:15;7.22;;;4.15;;
41653;SDS011;68687;52.030;7.110;2023-04-03T02:00:41;10.13;;;4.50;;
41653;SDS011;68687;52.030;7.110;2023-04-03T02:03:06;8.85;;;4.30;;
41653;SDS011;68687;52.030;7.110;2023-04-03T02:05:32;11.40;;;4.85;;
41653;SDS011;68687;52.030;7.110;2023-04-03T02:07:57;12.43;;;5.22;;
41653;SDS011;68687;52.030;7.110;2023-04-03T02:10:23;6.50;;;4.47;;
41653;SDS011;68687;52.030;7.110;2023-04-03T02:12:48;5.65;;;4.13;;
41653;SDS011;68687;52.030;7.110;2023-04-03T02:15:14;8.13;;;4.40;;
41653;SDS011;68687;52.030;7.110;2023-04-03T02:17:39;10.75;;;5.07;;
41653;SDS011;68687;52.030;7.110;2023-04-03T02:20:04;8.20;;;4.15;;
41653;SDS011;68687;52.030;7.110;2023-04-03T02:22:30;8.38;;;4.40;;
41653;SDS011;68687;52.030;7.110;2023-04-03T02:24:56;12.57;;;4.65;;
41653;SDS011;68687;52.030;7.110;2023-04-03T02:27:21;10.02;;;4.57;;
41653;SDS011;68687;52.030;7.110;2023-04-03T02:29:46;6.90;;;4.32;;
41653;SDS011;68687;52.030;7.110;2023-04-03T02:32:11;4.80;;;4.05;;
41653;SDS011;68687;52.030;7.110;2023-04-03T02:34:37;7.03;;;4.00;;
41653;SDS011;68687;52.030;7.110;2023-04-03T02:37:02;6.38;;;4.00;;
41653;SDS011;68687;52.030;7.110;2023-04-03T02:39:27;11.25;;;4.68;;
41653;SDS011;68687;52.030;7.110;2023-04-03T02:41:53;10.73;;;4.70;;
41653;SDS011;68687;52.030;7.110;2023-04-03T02:44:18;6.13;;;4.47;;
41653;SDS011;68687;52.030;7.110;2023-04-03T02:46:43;6.68;;;4.82;;
41653;SDS011;68687;52.030;7.110;2023-04-03T02:49:09;7.65;;;5.20;;
41653;SDS011;68687;52.030;7.110;2023-04-03T02:51:34;6.65;;;4.85;;
41653;SDS011;68687;52.030;7.110;2023-04-03T02:54:00;8.32;;;4.63;;
41653;SDS011;68687;52.030;7.110;2023-04-03T02:56:25;7.28;;;4.63;;
41653;SDS011;68687;52.030;7.110;2023-04-03T02:58:51;7.70;;;5.55;;
41653;SDS011;68687;52.030;7.110;2023-04-03T03:01:17;13.20;;;5.30;;
41653;SDS011;68687;52.030;7.110;2023-04-03T03:03:43;8.90;;;5.28;;
41653;SDS011;68687;52.030;7.110;2023-04-03T03:06:13;7.55;;;6.40;;
41653;SDS011;68687;52.030;7.110;2023-04-03T03:08:40;9.38;;;5.63;;
41653;SDS011;68687;52.030;7.110;2023-04-03T03:11:06;6.25;;;5.22;;
41653;SDS011;68687;52.030;7.110;2023-04-03T03:13:31;6.15;;;4.50;;
41653;SDS011;68687;52.030;7.110;2023-04-03T03:15:57;9.02;;;5.20;;
41653;SDS011;68687;52.030;7.110;2023-04-03T03:18:22;11.48;;;5.93;;
41653;SDS011;68687;52.030;7.110;2023-04-03T03:20:55;9.00;;;5.47;;
41653;SDS011;68687;52.030;7.110;2023-04-03T03:23:22;7.45;;;5.40;;
41653;SDS011;68687;52.030;7.110;2023-04-03T03:25:49;6.97;;;5.45;;
41653;SDS011;68687;52.030;7.110;2023-04-03T03:28:14;6.03;;;4.55;;
41653;SDS011;68687;52.030;7.110;2023-04-03T03:30:39;9.90;;;5.45;;
41653;SDS011;68687;52.030;7.110;2023-04-03T03:33:05;9.20;;;5.60;;
41653;SDS011;68687;52.030;7.110;2023-04-03T03:35:30;8.38;;;6.25;;
41653;SDS011;68687;52.030;7.110;2023-04-03T03:37:55;10.80;;;6.07;;
41653;SDS011;68687;52.030;7.110;2023-04-03T03:40:21;8.48;;;6.82;;
41653;SDS011;68687;52.030;7.110;2023-04-03T03:42:47;6.53;;;5.90;;
41653;SDS011;68687;52.030;7.110;2023-04-03T03:45:12;12.02;;;6.45;;
41653;SDS011;68687;52.030;7.110;2023-04-03T03:47:37;10.88;;;5.95;;
41653;SDS011;68687;52.030;7.110;2023-04-03T03:50:03;6.30;;;5.78;;
41653;SDS011;68687;52.030;7.110;2023-04-03T03:52:28;12.65;;;7.20;;
41653;SDS011;68687;52.030;7.110;2023-04-03T03:54:55;7.28;;;5.82;;
41653;SDS011;68687;52.030;7.110;2023-04-03T03:57:20;10.07;;;5.90;;
41653;SDS011;68687;52.030;7.110;2023-04-03T03:59:46;6.28;;;5.30;;
41653;SDS011;68687;52.030;7.110;2023-04-03T04:02:12;8.13;;;5.82;;
41653;SDS011;68687;52.030;7.110;2023-04-03T04:04:37;5.13;;;4.63;;
41653;SDS011;68687;52.030;7.110;2023-04-03T04:07:03;9.07;;;5.88;;
41653;SDS011;68687;52.030;7.110;2023-04-03T04:09:28;9.05;;;6.35;;
41653;SDS011;68687;52.030;7.110;2023-04-03T04:11:53;12.43;;;6.22;;
41653;SDS011;68687;52.030;7.110;2023-04-03T04:14:19;14.20;;;5.78;;
41653;SDS011;68687;52.030;7.110;2023-04-03T04:16:45;10.73;;;5.90;;
41653;SDS011;68687;52.030;7.110;2023-04-03T04:19:11;9.60;;;7.18;;
41653;SDS011;68687;52.030;7.110;2023-04-03T04:21:36;7.53;;;6.65;;
41653;SDS011;68687;52.030;7.110;2023-04-03T04:24:02;6.32;;;5.68;;
41653;SDS011;68687;52.030;7.110;2023-04-03T04:26:27;6.20;;;5.60;;
41653;SDS011;68687;52.030;7.110;2023-04-03T04:28:52;6.60;;;6.00;;
41653;SDS011;68687;52.030;7.110;2023-04-03T04:31:18;13.93;;;6.13;;
41653;SDS011;68687;52.030;7.110;2023-04-03T04:33:43;9.90;;;6.35;;
41653;SDS011;68687;52.030;7.110;2023-04-03T04:36:08;8.00;;;6.85;;
41653;SDS011;68687;52.030;7.110;2023-04-03T04:38:34;9.40;;;6.60;;
41653;SDS011;68687;52.030;7.110;2023-04-03T04:40:59;9.23;;;6.90;;
41653;SDS011;68687;52.030;7.110;2023-04-03T04:43:24;9.05;;;6.32;;
41653;SDS011;68687;52.030;7.110;2023-04-03T04:45:59;10.05;;;7.28;;
41653;SDS011;68687;52.030;7.110;2023-04-03T04:48:29;13.60;;;6.85;;
41653;SDS011;68687;52.030;7.110;2023-04-03T04:50:54;11.77;;;6.90;;
41653;SDS011;68687;52.030;7.110;2023-04-03T04:53:20;6.78;;;5.80;;
41653;SDS011;68687;52.030;7.110;2023-04-03T04:55:45;9.77;;;7.30;;
41653;SDS011;68687;52.030;7.110;2023-04-03T04:58:10;8.85;;;6.00;;
41653;SDS011;68687;52.030;7.110;2023-04-03T05:00:36;9.63;;;5.40;;
41653;SDS011;68687;52.030;7.110;2023-04-03T05:03:01;10.50;;;5.65;;
41653;SDS011;68687;52.030;7.110;2023-04-03T05:05:26;10.20;;;5.63;;
41653;SDS011;68687;52.030;7.110;2023-04-03T05:07:51;8.13;;;5.20;;
41653;SDS011;68687;52.030;7.110;2023-04-03T05:10:17;7.07;;;5.30;;
41653;SDS011;68687;52.030;7.110;2023-04-03T05:12:42;11.68;;;5.13;;
41653;SDS011;68687;52.030;7.110;2023-04-03T05:15:08;5.65;;;4.50;;
41653;SDS011;68687;52.030;7.110;2023-04-03T05:17:33;8.75;;;3.90;;
41653;SDS011;68687;52.030;7.110;2023-04-03T05:19:58;8.77;;;4.38;;
41653;SDS011;68687;52.030;7.110;2023-04-03T05:22:24;12.27;;;4.28;;
41653;SDS011;68687;52.030;7.110;2023-04-03T05:24:49;6.32;;;4.30;;
41653;SDS011;68687;52.030;7.110;2023-04-03T05:27:14;13.52;;;4.22;;
41653;SDS011;68687;52.030;7.110;2023-04-03T05:29:40;8.07;;;3.75;;
41653;SDS011;68687;52.030;7.110;2023-04-03T05:32:08;6.25;;;3.70;;
41653;SDS011;68687;52.030;7.110;2023-04-03T05:34:33;12.25;;;4.30;;
41653;SDS011;68687;52.030;7.110;2023-04-03T05:36:59;7.05;;;3.70;;
41653;SDS011;68687;52.030;7.110;2023-04-03T05:39:24;7.57;;;3.70;;
41653;SDS011;68687;52.030;7.110;2023-04-03T05:41:50;9.75;;;4.60;;
41653;SDS011;68687;52.030;7.110;2023-04-03T05:44:15;10.75;;;4.78;;
41653;SDS011;68687;52.030;7.110;2023-04-03T05:46:41;6.47;;;4.10;;
41653;SDS011;68687;52.030;7.110;2023-04-03T05:49:06;8.95;;;4.55;;
41653;SDS011;68687;52.030;7.110;2023-04-03T05:51:33;6.72;;;3.80;;
41653;SDS011;68687;52.030;7.110;2023-04-03T05:54:03;9.20;;;4.05;;
41653;SDS011;68687;52.030;7.110;2023-04-03T05:56:34;11.10;;;4.37;;
41653;SDS011;68687;52.030;7.110;2023-04-03T05:59:00;7.25;;;3.80;;
41653;SDS011;68687;52.030;7.110;2023-04-03T06:01:25;7.07;;;3.70;;
41653;SDS011;68687;52.030;7.110;2023-04-03T06:03:51;7.53;;;4.00;;
41653;SDS011;68687;52.030;7.110;2023-04-03T06:06:16;9.75;;;4.00;;
41653;SDS011;68687;52.030;7.110;2023-04-03T06:08:42;7.95;;;3.60;;
41653;SDS011;68687;52.030;7.110;2023-04-03T06:11:08;9.10;;;4.00;;
41653;SDS011;68687;52.030;7.110;2023-04-03T06:13:34;13.52;;;3.92;;
41653;SDS011;68687;52.030;7.110;2023-04-03T06:16:00;7.40;;;3.60;;
41653;SDS011;68687;52.030;7.110;2023-04-03T06:18:25;12.13;;;3.97;;
41653;SDS011;68687;52.030;7.110;2023-04-03T06:20:51;11.45;;;4.20;;
41653;SDS011;68687;52.030;7.110;2023-04-03T06:23:16;7.05;;;4.20;;
41653;SDS011;68687;52.030;7.110;2023-04-03T06:25:42;14.35;;;4.78;;
41653;SDS011;68687;52.030;7.110;2023-04-03T06:28:08;7.22;;;4.38;;
41653;SDS011;68687;52.030;7.110;2023-04-03T06:30:35;8.98;;;4.13;;
41653;SDS011;68687;52.030;7.110;2023-04-03T06:33:01;5.85;;;3.75;;
41653;SDS011;68687;52.030;7.110;2023-04-03T06:35:27;7.95;;;3.88;;
41653;SDS011;68687;52.030;7.110;2023-04-03T06:37:53;8.73;;;3.97;;
41653;SDS011;68687;52.030;7.110;2023-04-03T06:40:21;9.73;;;4.07;;
41653;SDS011;68687;52.030;7.110;2023-04-03T06:42:48;7.00;;;3.75;;
41653;SDS011;68687;52.030;7.110;2023-04-03T06:45:13;13.65;;;4.43;;
41653;SDS011;68687;52.030;7.110;2023-04-03T06:47:39;6.07;;;3.65;;
41653;SDS011;68687;52.030;7.110;2023-04-03T06:50:05;7.35;;;3.78;;
41653;SDS011;68687;52.030;7.110;2023-04-03T06:52:31;13.23;;;4.30;;
41653;SDS011;68687;52.030;7.110;2023-04-03T06:54:56;6.43;;;4.10;;
41653;SDS011;68687;52.030;7.110;2023-04-03T06:57:24;9.07;;;4.47;;
41653;SDS011;68687;52.030;7.110;2023-04-03T06:59:50;15.35;;;4.30;;
41653;SDS011;68687;52.030;7.110;2023-04-03T07:02:15;7.25;;;3.97;;
41653;SDS011;68687;52.030;7.110;2023-04-03T07:04:40;8.05;;;4.47;;
41653;SDS011;68687;52.030;7.110;2023-04-03T07:07:06;10.35;;;6.00;;
41653;SDS011;68687;52.030;7.110;2023-04-03T07:09:32;6.38;;;5.18;;
41653;SDS011;68687;52.030;7.110;2023-04-03T07:11:57;6.35;;;4.13;;
41653;SDS011;68687;52.030;7.110;2023-04-03T07:14:23;7.25;;;4.25;;
41653;SDS011;68687;52.030;7.110;2023-04-03T07:16:48;3.92;;;3.63;;
41653;SDS011;68687;52.030;7.110;2023-04-03T07:19:13;8.20;;;3.95;;
41653;SDS011;68687;52.030;7.110;2023-04-03T07:21:39;11.63;;;4.20;;
41653;SDS011;68687;52.030;7.110;2023-04-03T07:24:06;5.63;;;3.63;;
41653;SDS011;68687;52.030;7.110;2023-04-03T07:26:32;3.55;;;3.22;;
41653;SDS011;68687;52.030;7.110;2023-04-03T07:28:57;6.43;;;3.58;;
41653;SDS011;68687;52.030;7.110;2023-04-03T07:31:22;7.35;;;3.83;;
41653;SDS011;68687;52.030;7.110;2023-04-03T07:33:48;3.95;;;3.55;;
41653;SDS011;68687;52.030;7.110;2023-04-03T07:36:17;7.45;;;4.13;;
41653;SDS011;68687;52.030;7.110;2023-04-03T07:38:45;8.10;;;3.70;;
41653;SDS011;68687;52.030;7.110;2023-04-03T07:41:14;8.20;;;4.13;;
41653;SDS011;68687;52.030;7.110;2023-04-03T07:43:43;9.00;;;4.07;;
41653;SDS011;68687;52.030;7.110;2023-04-03T07:46:09;6.82;;;3.85;;
41653;SDS011;68687;52.030;7.110;2023-04-03T07:48:34;6.75;;;3.88;;
41653;SDS011;68687;52.030;7.110;2023-04-03T07:51:00;7.03;;;3.97;;
41653;SDS011;68687;52.030;7.110;2023-04-03T07:53:27;4.80;;;4.28;;
41653;SDS011;68687;52.030;7.110;2023-04-03T07:55:53;7.97;;;4.57;;
41653;SDS011;68687;52.030;7.110;2023-04-03T07:58:20;5.40;;;4.50;;
41653;SDS011;68687;52.030;7.110;2023-04-03T08:00:46;5.13;;;4.25;;
41653;SDS011;68687;52.030;7.110;2023-04-03T08:03:12;6.43;;;4.32;;
41653;SDS011;68687;52.030;7.110;2023-04-03T08:05:43;7.03;;;4.10;;
41653;SDS011;68687;52.030;7.110;2023-04-03T08:08:11;9.10;;;4.07;;
41653;SDS011;68687;52.030;7.110;2023-04-03T08:10:37;6.85;;;4.60;;
41653;SDS011;68687;52.030;7.110;2023-04-03T08:13:03;4.88;;;4.03;;
41653;SDS011;68687;52.030;7.110;2023-04-03T08:15:30;7.78;;;4.40;;
41653;SDS011;68687;52.030;7.110;2023-04-03T08:17:55;5.57;;;3.65;;
41653;SDS011;68687;52.030;7.110;2023-04-03T08:20:21;4.78;;;4.22;;
41653;SDS011;68687;52.030;7.110;2023-04-03T08:22:46;5.32;;;4.00;;
41653;SDS011;68687;52.030;7.110;2023-04-03T08:25:11;5.40;;;4.53;;
41653;SDS011;68687;52.030;7.110;2023-04-03T08:27:37;4.45;;;4.07;;
41653;SDS011;68687;52.030;7.110;2023-04-03T08:30:03;4.90;;;3.50;;
41653;SDS011;68687;52.030;7.110;2023-04-03T08:32:29;5.45;;;4.00;;
41653;SDS011;68687;52.030;7.110;2023-04-03T08:34:54;5.00;;;3.63;;
41653;SDS011;68687;52.030;7.110;2023-04-03T08:37:19;5.45;;;3.55;;
41653;SDS011;68687;52.030;7.110;2023-04-03T08:39:45;4.57;;;3.35;;
41653;SDS011;68687;52.030;7.110;2023-04-03T08:42:14;7.63;;;3.70;;
41653;SDS011;68687;52.030;7.110;2023-04-03T08:44:50;4.63;;;3.60;;
41653;SDS011;68687;52.030;7.110;2023-04-03T08:47:26;4.07;;;3.50;;
41653;SDS011;68687;52.030;7.110;2023-04-03T08:49:55;4.97;;;4.57;;
41653;SDS011;68687;52.030;7.110;2023-04-03T08:55:10;4.63;;;4.22;;
41653;SDS011;68687;52.030;7.110;2023-04-03T08:57:41;5.40;;;3.80;;
41653;SDS011;68687;52.030;7.110;2023-04-03T09:02:52;6.65;;;5.07;;
41653;SDS011;68687;52.030;7.110;2023-04-03T09:05:20;4.38;;;3.70;;
41653;SDS011;68687;52.030;7.110;2023-04-03T09:07:59;4.20;;;3.90;;
41653;SDS011;68687;52.030;7.110;2023-04-03T09:10:29;4.72;;;4.40;;
41653;SDS011;68687;52.030;7.110;2023-04-03T09:13:02;9.50;;;4.82;;
41653;SDS011;68687;52.030;7.110;2023-04-03T09:15:34;5.15;;;4.70;;
41653;SDS011;68687;52.030;7.110;2023-04-03T09:23:46;7.20;;;4.28;;
41653;SDS011;68687;52.030;7.110;2023-04-03T09:26:28;8.60;;;5.35;;
41653;SDS011;68687;52.030;7.110;2023-04-03T09:28:59;5.25;;;4.75;;
41653;SDS011;68687;52.030;7.110;2023-04-03T09:31:31;9.15;;;5.25;;
41653;SDS011;68687;52.030;7.110;2023-04-03T09:34:03;5.20;;;4.78;;
41653;SDS011;68687;52.030;7.110;2023-04-03T09:36:46;5.68;;;4.22;;
41653;SDS011;68687;52.030;7.110;2023-04-03T09:39:20;4.68;;;4.28;;
41653;SDS011;68687;52.030;7.110;2023-04-03T09:41:56;5.43;;;4.93;;
41653;SDS011;68687;52.030;7.110;2023-04-03T09:44:43;5.38;;;4.45;;
41653;SDS011;68687;52.030;7.110;2023-04-03T09:47:29;4.30;;;3.90;;
41653;SDS011;68687;52.030;7.110;2023-04-03T09:52:38;3.65;;;3.45;;
41653;SDS011;68687;52.030;7.110;2023-04-03T09:55:08;5.15;;;3.58;;
41653;SDS011;68687;52.030;7.110;2023-04-03T09:57:39;6.55;;;4.50;;
41653;SDS011;68687;52.030;7.110;2023-04-03T10:00:06;4.50;;;4.10;;
41653;SDS011;68687;52.030;7.110;2023-04-03T10:02:44;4.70;;;4.30;;
41653;SDS011;68687;52.030;7.110;2023-04-03T10:07:52;4.70;;;4.00;;
41653;SDS011;68687;52.030;7.110;2023-04-03T10:10:36;4.93;;;4.53;;
41653;SDS011;68687;52.030;7.110;2023-04-03T10:13:12;5.43;;;4.60;;
41653;SDS011;68687;52.030;7.110;2023-04-03T10:15:40;4.68;;;4.28;;
41653;SDS011;68687;52.030;7.110;2023-04-03T10:18:17;4.47;;;4.03;;
41653;SDS011;68687;52.030;7.110;2023-04-03T10:20:53;4.22;;;3.90;;
41653;SDS011;68687;52.030;7.110;2023-04-03T10:23:43;4.90;;;3.75;;
41653;SDS011;68687;52.030;7.110;2023-04-03T10:26:17;4.20;;;3.90;;
41653;SDS011;68687;52.030;7.110;2023-04-03T10:28:57;5.05;;;3.88;;
41653;SDS011;68687;52.030;7.110;2023-04-03T10:39:24;6.68;;;5.55;;
41653;SDS011;68687;52.030;7.110;2023-04-03T10:44:46;4.90;;;4.60;;
41653;SDS011;68687;52.030;7.110;2023-04-03T10:53:27;7.90;;;3.97;;
41653;SDS011;68687;52.030;7.110;2023-04-03T10:58:38;6.05;;;4.20;;
41653;SDS011;68687;52.030;7.110;2023-04-03T11:01:12;6.10;;;4.50;;
41653;SDS011;68687;52.030;7.110;2023-04-03T11:03:58;4.50;;;4.10;;
41653;SDS011;68687;52.030;7.110;2023-04-03T11:06:26;5.13;;;4.63;;
41653;SDS011;68687;52.030;7.110;2023-04-03T11:09:13;4.60;;;4.30;;
41653;SDS011;68687;52.030;7.110;2023-04-03T11:11:43;4.55;;;4.25;;
41653;SDS011;68687;52.030;7.110;2023-04-03T11:14:14;5.85;;;5.35;;
41653;SDS011;68687;52.030;7.110;2023-04-03T11:19:42;7.20;;;4.47;;
41653;SDS011;68687;52.030;7.110;2023-04-03T11:27:42;5.82;;;4.25;;
41653;SDS011;68687;52.030;7.110;2023-04-03T11:30:21;5.35;;;4.72;;
41653;SDS011;68687;52.030;7.110;2023-04-03T11:36:04;4.93;;;4.50;;
41653;SDS011;68687;52.030;7.110;2023-04-03T11:38:35;7.35;;;4.68;;
41653;SDS011;68687;52.030;7.110;2023-04-03T11:41:04;10.00;;;5.53;;
41653;SDS011;68687;52.030;7.110;2023-04-03T11:43:32;4.65;;;4.30;;
41653;SDS011;68687;52.030;7.110;2023-04-03T11:45:59;6.07;;;5.35;;
41653;SDS011;68687;52.030;7.110;2023-04-03T11:50:53;8.43;;;5.22;;
41653;SDS011;68687;52.030;7.110;2023-04-03T11:53:36;6.18;;;4.60;;
41653;SDS011;68687;52.030;7.110;2023-04-03T12:04:23;4.32;;;4.03;;
41653;SDS011;68687;52.030;7.110;2023-04-03T12:06:52;5.50;;;4.95;;
41653;SDS011;68687;52.030;7.110;2023-04-03T12:11:52;5.13;;;4.50;;
41653;SDS011;68687;52.030;7.110;2023-04-03T12:14:20;9.90;;;4.32;;
41653;SDS011;68687;52.030;7.110;2023-04-03T12:16:49;5.93;;;4.00;;
41653;SDS011;68687;52.030;7.110;2023-04-03T12:24:28;7.13;;;3.78;;
41653;SDS011;68687;52.030;7.110;2023-04-03T12:32:11;3.90;;;3.58;;
41653;SDS011;68687;52.030;7.110;2023-04-03T12:35:01;9.13;;;4.57;;
41653;SDS011;68687;52.030;7.110;2023-04-03T12:48:33;4.40;;;4.00;;
41653;SDS011;68687;52.030;7.110;2023-04-03T12:51:03;4.30;;;3.95;;
41653;SDS011;68687;52.030;7.110;2023-04-03T12:53:34;5.03;;;4.50;;
41653;SDS011;68687;52.030;7.110;2023-04-03T12:58:49;8.25;;;4.95;;
41653;SDS011;68687;52.030;7.110;2023-04-03T13:01:20;6.15;;;4.38;;
41653;SDS011;68687;52.030;7.110;2023-04-03T13:03:58;5.77;;;4.00;;
41653;SDS011;68687;52.030;7.110;2023-04-03T13:06:32;4.35;;;3.95;;
41653;SDS011;68687;52.030;7.110;2023-04-03T13:09:03;5.20;;;3.60;;
41653;SDS011;68687;52.030;7.110;2023-04-03T13:11:33;5.35;;;3.80;;
41653;SDS011;68687;52.030;7.110;2023-04-03T13:14:04;6.80;;;4.05;;
41653;SDS011;68687;52.030;7.110;2023-04-03T13:16:39;7.65;;;4.38;;
41653;SDS011;68687;52.030;7.110;2023-04-03T13:19:06;7.78;;;4.72;;
41653;SDS011;68687;52.030;7.110;2023-04-03T13:21:40;10.93;;;5.87;;
41653;SDS011;68687;52.030;7.110;2023-04-03T13:24:06;9.73;;;5.97;;
41653;SDS011;68687;52.030;7.110;2023-04-03T13:26:33;5.63;;;4.47;;
41653;SDS011;68687;52.030;7.110;2023-04-03T13:29:00;14.23;;;6.88;;
41653;SDS011;68687;52.030;7.110;2023-04-03T13:31:29;8.55;;;4.88;;
41653;SDS011;68687;52.030;7.110;2023-04-03T13:34:10;7.65;;;4.00;;
41653;SDS011;68687;52.030;7.110;2023-04-03T13:36:39;5.28;;;3.78;;
41653;SDS011;68687;52.030;7.110;2023-04-03T13:39:20;7.78;;;4.47;;
41653;SDS011;68687;52.030;7.110;2023-04-03T13:41:49;7.00;;;4.30;;
41653;SDS011;68687;52.030;7.110;2023-04-03T13:46:43;4.18;;;3.80;;
41653;SDS011;68687;52.030;7.110;2023-04-03T13:51:56;10.73;;;4.50;;
41653;SDS011;68687;52.030;7.110;2023-04-03T13:54:23;5.75;;;3.60;;
41653;SDS011;68687;52.030;7.110;2023-04-03T13:57:02;5.78;;;3.80;;
41653;SDS011;68687;52.030;7.110;2023-04-03T13:59:35;4.38;;;3.40;;
41653;SDS011;68687;52.030;7.110;2023-04-03T14:04:27;10.70;;;5.43;;
41653;SDS011;68687;52.030;7.110;2023-04-03T14:06:54;5.00;;;3.88;;
41653;SDS011;68687;52.030;7.110;2023-04-03T14:09:21;8.93;;;3.97;;
41653;SDS011;68687;52.030;7.110;2023-04-03T14:11:48;9.90;;;5.65;;
41653;SDS011;68687;52.030;7.110;2023-04-03T14:14:17;5.13;;;3.55;;
41653;SDS011;68687;52.030;7.110;2023-04-03T14:16:51;8.20;;;3.83;;
41653;SDS011;68687;52.030;7.110;2023-04-03T14:19:20;4.03;;;3.35;;
41653;SDS011;68687;52.030;7.110;2023-04-03T14:21:46;8.18;;;3.85;;
41653;SDS011;68687;52.030;7.110;2023-04-03T14:24:12;8.90;;;3.30;;
41653;SDS011;68687;52.030;7.110;2023-04-03T14:26:37;4.50;;;3.45;;
41653;SDS011;68687;52.030;7.110;2023-04-03T14:29:03;7.22;;;4.88;;
41653;SDS011;68687;52.030;7.110;2023-04-03T14:31:28;4.78;;;3.90;;
41653;SDS011;68687;52.030;7.110;2023-04-03T14:33:54;6.60;;;4.68;;
41653;SDS011;68687;52.030;7.110;2023-04-03T14:36:20;8.18;;;4.65;;
41653;SDS011;68687;52.030;7.110;2023-04-03T14:38:48;5.28;;;4.10;;
41653;SDS011;68687;52.030;7.110;2023-04-03T14:41:15;7.57;;;5.38;;
41653;SDS011;68687;52.030;7.110;2023-04-03T14:43:44;6.35;;;3.85;;
41653;SDS011;68687;52.030;7.110;2023-04-03T14:46:18;9.02;;;4.57;;
41653;SDS011;68687;52.030;7.110;2023-04-03T14:48:47;7.30;;;4.22;;
41653;SDS011;68687;52.030;7.110;2023-04-03T14:51:13;4.35;;;3.20;;
41653;SDS011;68687;52.030;7.110;2023-04-03T14:53:40;6.90;;;4.03;;
41653;SDS011;68687;52.030;7.110;2023-04-03T14:56:10;6.97;;;3.63;;
41653;SDS011;68687;52.030;7.110;2023-04-03T14:58:39;6.38;;;4.22;;
41653;SDS011;68687;52.030;7.110;2023-04-03T15:01:04;6.43;;;4.20;;
41653;SDS011;68687;52.030;7.110;2023-04-03T15:03:29;7.05;;;3.85;;
41653;SDS011;68687;52.030;7.110;2023-04-03T15:05:55;5.82;;;4.63;;
41653;SDS011;68687;52.030;7.110;2023-04-03T15:08:21;6.68;;;4.00;;
41653;SDS011;68687;52.030;7.110;2023-04-03T15:10:49;4.22;;;3.47;;
41653;SDS011;68687;52.030;7.110;2023-04-03T15:13:17;8.60;;;4.72;;
41653;SDS011;68687;52.030;7.110;2023-04-03T15:15:43;4.97;;;3.53;;
41653;SDS011;68687;52.030;7.110;2023-04-03T15:18:18;4.07;;;3.67;;
41653;SDS011;68687;52.030;7.110;2023-04-03T15:20:45;6.13;;;3.60;;
41653;SDS011;68687;52.030;7.110;2023-04-03T15:23:12;6.05;;;3.60;;
41653;SDS011;68687;52.030;7.110;2023-04-03T15:25:39;4.30;;;3.88;;
41653;SDS011;68687;52.030;7.110;2023-04-03T15:28:04;5.38;;;4.20;;
41653;SDS011;68687;52.030;7.110;2023-04-03T15:30:30;15.80;;;3.88;;
41653;SDS011;68687;52.030;7.110;2023-04-03T15:32:56;6.18;;;3.80;;
41653;SDS011;68687;52.030;7.110;2023-04-03T15:35:21;7.80;;;3.22;;
41653;SDS011;68687;52.030;7.110;2023-04-03T15:37:46;6.00;;;3.22;;
41653;SDS011;68687;52.030;7.110;2023-04-03T15:40:13;5.07;;;3.90;;
41653;SDS011;68687;52.030;7.110;2023-04-03T15:42:38;59.22;;;7.60;;
41653;SDS011;68687;52.030;7.110;2023-04-03T15:45:05;6.13;;;4.05;;
41653;SDS011;68687;52.030;7.110;2023-04-03T15:47:31;5.65;;;3.67;;
41653;SDS011;68687;52.030;7.110;2023-04-03T15:49:56;5.03;;;3.42;;
41653;SDS011;68687;52.030;7.110;2023-04-03T15:52:22;5.65;;;4.53;;
41653;SDS011;68687;52.030;7.110;2023-04-03T15:54:48;9.18;;;4.10;;
41653;SDS011;68687;52.030;7.110;2023-04-03T15:57:13;10.38;;;4.10;;
41653;SDS011;68687;52.030;7.110;2023-04-03T15:59:38;6.05;;;3.33;;
41653;SDS011;68687;52.030;7.110;2023-04-03T16:02:04;6.93;;;3.17;;
41653;SDS011;68687;52.030;7.110;2023-04-03T16:04:31;4.05;;;3.15;;
41653;SDS011;68687;52.030;7.110;2023-04-03T16:06:57;7.28;;;3.78;;
41653;SDS011;68687;52.030;7.110;2023-04-03T16:09:26;4.32;;;3.70;;
41653;SDS011;68687;52.030;7.110;2023-04-03T16:11:51;4.53;;;3.28;;
41653;SDS011;68687;52.030;7.110;2023-04-03T16:14:16;4.55;;;3.60;;
41653;SDS011;68687;52.030;7.110;2023-04-03T16:16:42;9.45;;;3.65;;
41653;SDS011;68687;52.030;7.110;2023-04-03T16:19:07;5.97;;;4.07;;
41653;SDS011;68687;52.030;7.110;2023-04-03T16:21:33;8.77;;;3.50;;